createdAt,value
2018-03-23T11:55:01.112Z,22.00
2018-03-23T11:57:28.827Z,22.40
2018-03-23T11:59:56.400Z,21.50
2018-03-23T12:02:23.955Z,21.50
2018-03-23T12:04:51.623Z,22.70
2018-03-23T12:07:19.974Z,22.00
2018-03-23T12:09:47.595Z,22.00
2018-03-23T12:12:15.211Z,21.10
2018-03-23T12:14:42.778Z,20.90
2018-03-23T12:17:10.329Z,20.70
2018-03-23T12:19:37.912Z,20.90
2018-03-23T12:22:06.556Z,20.30
2018-03-23T12:24:34.134Z,21.20
2018-03-23T12:27:01.736Z,19.80
2018-03-23T12:29:29.448Z,21.90
2018-03-23T12:31:57.068Z,21.10
2018-03-23T12:34:24.664Z,22.40
2018-03-23T12:36:52.204Z,24.20
2018-03-23T12:39:19.861Z,24.80
2018-03-23T12:41:47.444Z,24.30
2018-03-23T12:44:15.028Z,25.30
2018-03-23T12:46:42.582Z,22.50
2018-03-23T12:49:10.321Z,23.20
2018-03-23T12:51:37.940Z,23.00
2018-03-23T12:54:05.468Z,23.40
2018-03-23T12:56:33.072Z,22.80
2018-03-23T12:59:00.717Z,22.70
2018-03-23T13:01:28.403Z,22.50
2018-03-23T13:03:55.967Z,21.70
2018-03-23T13:06:23.542Z,21.40
2018-03-23T13:08:51.861Z,23.00
2018-03-23T13:11:19.461Z,23.00
2018-03-23T13:13:47.040Z,22.80
2018-03-23T13:16:15.401Z,23.50
2018-03-23T13:18:43.123Z,23.50
2018-03-23T13:21:10.686Z,22.10
2018-03-23T13:23:38.302Z,22.00
2018-03-23T13:26:05.952Z,22.10
2018-03-23T13:28:33.605Z,21.80
2018-03-23T13:31:01.262Z,23.40
2018-03-23T13:33:28.920Z,23.50
2018-03-23T13:35:56.570Z,23.20
2018-03-23T13:38:24.117Z,22.70
2018-03-23T13:40:51.819Z,21.70
2018-03-23T13:43:19.421Z,22.20
2018-03-23T13:45:46.979Z,24.90
2018-03-23T13:48:14.544Z,24.40
2018-03-23T13:50:43.024Z,23.50
2018-03-23T13:53:10.623Z,23.50
2018-03-23T13:55:38.280Z,24.20
2018-03-23T13:58:05.897Z,24.60
2018-03-23T14:00:39.080Z,26.30
2018-03-23T14:03:06.705Z,26.50
2018-03-23T14:05:34.317Z,28.00
2018-03-23T14:08:02.012Z,29.10
2018-03-23T14:10:29.554Z,30.00
2018-03-23T14:12:57.119Z,30.90
2018-03-23T14:15:24.697Z,31.40
2018-03-23T14:17:52.277Z,32.30
2018-03-23T14:20:19.930Z,32.50
2018-03-23T14:22:47.591Z,34.00
2018-03-23T14:25:15.202Z,33.40
2018-03-23T14:27:42.786Z,33.20
2018-03-23T14:30:10.458Z,34.30
2018-03-23T14:32:38.068Z,34.40
2018-03-23T14:35:05.683Z,33.10
2018-03-23T14:37:33.260Z,35.50
2018-03-23T14:40:00.916Z,34.50
2018-03-23T14:42:28.509Z,34.50
2018-03-23T14:44:56.124Z,36.40
2018-03-23T14:47:23.650Z,35.90
2018-03-23T14:49:51.259Z,35.10
2018-03-23T14:52:18.971Z,35.00
2018-03-23T14:54:46.589Z,34.60
2018-03-23T14:57:14.187Z,34.20
2018-03-23T14:59:41.811Z,35.20
2018-03-23T15:02:09.487Z,34.10
2018-03-23T15:04:37.081Z,34.60
2018-03-23T15:07:05.355Z,36.30
2018-03-23T15:09:33.038Z,36.30
2018-03-23T15:12:00.607Z,36.30
2018-03-23T15:14:31.228Z,35.10
2018-03-23T15:16:58.828Z,35.80
2018-03-23T15:19:26.464Z,38.10
2018-03-23T15:21:54.029Z,36.60
2018-03-23T15:24:21.799Z,36.30
2018-03-23T15:26:49.400Z,36.00
2018-03-23T15:29:16.977Z,35.60
2018-03-23T15:31:44.610Z,33.20
2018-03-23T15:34:12.253Z,33.10
2018-03-23T15:36:39.832Z,33.30
2018-03-23T15:39:07.788Z,32.90
2018-03-23T15:41:35.452Z,34.40
2018-03-23T15:44:03.004Z,37.60
2018-03-23T15:46:30.609Z,37.90
2018-03-23T15:48:58.243Z,38.50
2018-03-23T15:51:25.801Z,39.80
2018-03-23T15:53:53.464Z,40.80
2018-03-23T15:56:21.081Z,41.00
2018-03-23T15:58:48.685Z,41.70
2018-03-23T16:01:17.988Z,42.30
2018-03-23T16:03:45.533Z,42.20
2018-03-23T16:06:13.193Z,41.70
2018-03-23T16:08:40.738Z,42.10
2018-03-23T16:11:08.426Z,42.70
2018-03-23T16:13:35.967Z,44.00
2018-03-23T16:16:03.640Z,45.00
2018-03-23T16:18:31.215Z,45.20
2018-03-23T16:20:58.773Z,43.30
2018-03-23T16:23:26.637Z,43.70
2018-03-23T16:25:55.705Z,43.90
2018-03-23T16:28:23.437Z,44.30
2018-03-23T16:30:51.040Z,43.50
2018-03-23T16:33:18.679Z,42.80
2018-03-23T16:35:46.265Z,43.20
2018-03-23T16:38:13.888Z,45.50
2018-03-23T16:40:41.462Z,45.40
2018-03-23T16:43:09.088Z,46.70
2018-03-23T16:45:36.684Z,47.70
2018-03-23T16:48:04.261Z,49.00
2018-03-23T16:50:31.824Z,50.10
2018-03-23T16:52:59.368Z,50.60
2018-03-23T16:55:26.901Z,49.60
2018-03-23T16:57:54.534Z,50.50
2018-03-23T17:00:23.400Z,51.60
2018-03-23T17:02:51.253Z,51.80
2018-03-23T17:05:18.830Z,51.60
2018-03-23T17:07:46.370Z,51.40
2018-03-23T17:10:14.679Z,52.00
2018-03-23T17:12:42.305Z,52.00
2018-03-23T17:15:09.986Z,52.60
2018-03-23T17:17:38.370Z,52.50
2018-03-23T17:20:05.959Z,52.50
2018-03-23T17:22:33.524Z,53.60
2018-03-23T17:25:01.180Z,55.20
2018-03-23T17:27:28.740Z,55.70
2018-03-23T17:29:56.463Z,55.50
2018-03-23T17:32:24.142Z,55.70
2018-03-23T17:34:52.036Z,56.90
2018-03-23T17:37:19.626Z,57.40
2018-03-23T17:39:47.956Z,58.40
2018-03-23T17:42:15.573Z,58.40
2018-03-23T17:44:43.146Z,59.20
2018-03-23T17:47:10.781Z,59.20
2018-03-23T17:49:38.394Z,59.60
2018-03-23T17:52:06.051Z,60.00
2018-03-23T17:54:33.724Z,60.70
2018-03-23T17:57:02.255Z,61.40
2018-03-23T17:59:29.853Z,62.00
2018-03-23T18:01:57.568Z,62.90
2018-03-23T18:04:26.210Z,63.50
2018-03-23T18:06:53.935Z,63.50
2018-03-23T18:09:21.524Z,63.90
2018-03-23T18:11:49.214Z,64.40
2018-03-23T18:14:16.741Z,65.00
2018-03-23T18:16:44.310Z,65.00
2018-03-23T18:19:12.068Z,65.20
2018-03-23T18:21:39.674Z,65.40
2018-03-23T18:24:07.338Z,66.30
2018-03-23T18:26:34.916Z,66.60
2018-03-23T18:29:03.284Z,67.00
2018-03-23T18:31:31.635Z,66.90
2018-03-23T18:33:59.336Z,66.90
2018-03-23T18:36:26.856Z,67.60
2018-03-23T18:38:54.420Z,68.10
2018-03-23T18:41:22.089Z,68.50
2018-03-23T18:43:49.696Z,68.50
2018-03-23T18:46:17.257Z,68.10
2018-03-23T18:48:44.868Z,68.30
2018-03-23T18:51:12.459Z,68.80
2018-03-23T18:53:40.011Z,69.10
2018-03-23T18:56:07.695Z,68.70
2018-03-23T18:58:35.288Z,68.70
2018-03-23T19:01:02.926Z,69.20
2018-03-23T19:03:31.192Z,69.30
2018-03-23T19:05:58.843Z,69.10
2018-03-23T19:08:26.550Z,69.10
2018-03-23T19:10:54.190Z,69.60
2018-03-23T19:13:21.860Z,69.40
2018-03-23T19:15:49.411Z,69.30
2018-03-23T19:18:16.949Z,69.80
2018-03-23T19:20:44.608Z,70.10
2018-03-23T19:23:12.952Z,70.40
2018-03-23T19:25:40.565Z,70.40
2018-03-23T19:28:08.148Z,70.60
2018-03-23T19:30:35.753Z,70.60
2018-03-23T19:33:03.281Z,70.70
2018-03-23T19:35:30.869Z,70.90
2018-03-23T19:37:58.518Z,70.50
2018-03-23T19:40:26.130Z,70.70
2018-03-23T19:42:53.752Z,70.70
2018-03-23T19:45:21.428Z,70.70
2018-03-23T19:47:49.053Z,70.90
2018-03-23T19:50:16.723Z,70.70
2018-03-23T19:52:44.334Z,70.90
2018-03-23T19:55:11.973Z,70.90
2018-03-23T19:57:40.347Z,70.50
2018-03-23T20:00:08.046Z,70.40
2018-03-23T20:02:36.444Z,70.50
2018-03-23T20:05:04.048Z,70.50
2018-03-23T20:07:31.603Z,70.80
2018-03-23T20:09:59.235Z,71.10
2018-03-23T20:12:26.974Z,71.50
2018-03-23T20:14:54.553Z,71.50
2018-03-23T20:17:27.717Z,71.70
2018-03-23T20:19:55.252Z,72.10
2018-03-23T20:22:22.800Z,71.70
2018-03-23T20:24:50.449Z,72.00
2018-03-23T20:27:23.626Z,72.50
2018-03-23T20:29:51.250Z,72.50
2018-03-23T20:32:24.576Z,72.20
2018-03-23T20:34:52.377Z,72.50
2018-03-23T20:37:19.990Z,72.80
2018-03-23T20:39:47.634Z,72.80
2018-03-23T20:42:15.328Z,72.90
2018-03-23T20:44:43.516Z,73.10
2018-03-23T20:47:11.207Z,72.90
2018-03-23T20:49:38.826Z,72.80
2018-03-23T20:52:06.432Z,72.60
2018-03-23T20:54:34.052Z,72.60
2018-03-23T20:57:01.685Z,72.60
2018-03-23T20:59:29.406Z,72.40
2018-03-23T21:01:56.972Z,72.70
2018-03-23T21:04:24.589Z,72.60
2018-03-23T21:06:52.211Z,72.70
2018-03-23T21:09:19.856Z,72.60
2018-03-23T21:11:47.498Z,72.60
2018-03-23T21:14:15.171Z,72.50
2018-03-23T21:16:42.840Z,72.70
2018-03-23T21:19:10.581Z,72.80
2018-03-23T21:21:38.208Z,72.20
2018-03-23T21:24:05.805Z,71.90
2018-03-23T21:26:33.553Z,71.90
2018-03-23T21:29:02.659Z,72.80
2018-03-23T21:31:30.265Z,72.00
2018-03-23T21:33:57.963Z,71.70
2018-03-23T21:36:25.693Z,72.20
2018-03-23T21:38:53.310Z,71.40
2018-03-23T21:41:21.107Z,71.20
2018-03-23T21:43:48.740Z,71.00
2018-03-23T21:46:16.399Z,71.30
2018-03-23T21:48:44.057Z,71.80
2018-03-23T21:51:11.711Z,71.80
2018-03-23T21:53:39.332Z,72.10
2018-03-23T21:56:06.908Z,72.60
2018-03-23T21:58:34.741Z,72.50
2018-03-23T22:01:06.344Z,72.60
2018-03-23T22:03:34.018Z,72.80
2018-03-23T22:06:03.350Z,72.40
2018-03-23T22:08:30.948Z,72.70
2018-03-23T22:10:58.562Z,73.10
2018-03-23T22:13:26.236Z,73.00
2018-03-23T22:15:53.997Z,72.70
2018-03-23T22:18:21.636Z,73.20
2018-03-23T22:20:49.440Z,73.50
2018-03-23T22:23:17.140Z,73.50
2018-03-23T22:25:44.749Z,73.70
2018-03-23T22:28:12.499Z,73.90
2018-03-23T22:30:40.237Z,73.80
2018-03-23T22:33:07.814Z,73.40
2018-03-23T22:35:35.609Z,73.00
2018-03-23T22:38:03.268Z,73.20
2018-03-23T22:40:30.908Z,74.10
2018-03-23T22:42:58.481Z,73.30
2018-03-23T22:45:26.124Z,73.30
2018-03-23T22:47:53.754Z,73.00
2018-03-23T22:50:21.478Z,72.60
2018-03-23T22:52:49.141Z,72.40
2018-03-23T22:55:16.779Z,71.60
2018-03-23T22:57:44.414Z,71.20
